sensor_id;sensor_type;location;lat;lon;timestamp;pressure;altitude;pressure_sealevel;temperature;humidity
22743;BME280;11538;48.884;8.696;2023-05-21T00:00:07;98415.38;;;15.54;100.00
22743;BME280;11538;48.884;8.696;2023-05-21T00:02:38;98408.19;;;15.49;100.00
22743;BME280;11538;48.884;8.696;2023-05-21T00:05:06;98411.94;;;15.44;100.00
22743;BME280;11538;48.884;8.696;2023-05-21T00:07:40;98414.56;;;15.41;100.00
22743;BME280;11538;48.884;8.696;2023-05-21T00:10:07;98416.50;;;15.40;100.00
22743;BME280;11538;48.884;8.696;2023-05-21T00:12:34;98411.81;;;15.41;100.00
22743;BME280;11538;48.884;8.696;2023-05-21T00:15:02;98411.13;;;15.44;100.00
22743;BME280;11538;48.884;8.696;2023-05-21T00:17:29;98405.34;;;15.45;100.00
22743;BME280;11538;48.884;8.696;2023-05-21T00:19:56;98403.28;;;15.42;100.00
22743;BME280;11538;48.884;8.696;2023-05-21T00:22:23;98397.69;;;15.39;100.00
22743;BME280;11538;48.884;8.696;2023-05-21T00:24:50;98396.09;;;15.38;100.00
22743;BME280;11538;48.884;8.696;2023-05-21T00:27:17;98402.25;;;15.34;100.00
22743;BME280;11538;48.884;8.696;2023-05-21T00:29:44;98393.28;;;15.34;100.00
22743;BME280;11538;48.884;8.696;2023-05-21T00:32:10;98393.72;;;15.36;100.00
22743;BME280;11538;48.884;8.696;2023-05-21T00:34:38;98385.19;;;15.38;100.00
22743;BME280;11538;48.884;8.696;2023-05-21T00:37:05;98395.41;;;15.41;100.00
22743;BME280;11538;48.884;8.696;2023-05-21T00:39:36;98384.25;;;15.33;100.00
22743;BME280;11538;48.884;8.696;2023-05-21T00:42:03;98379.03;;;15.28;100.00
22743;BME280;11538;48.884;8.696;2023-05-21T00:44:30;98372.44;;;15.29;100.00
22743;BME280;11538;48.884;8.696;2023-05-21T00:47:01;98373.56;;;15.28;100.00
22743;BME280;11538;48.884;8.696;2023-05-21T00:49:29;98372.19;;;15.22;100.00
22743;BME280;11538;48.884;8.696;2023-05-21T00:51:57;98379.56;;;15.09;100.00
22743;BME280;11538;48.884;8.696;2023-05-21T00:54:29;98372.41;;;15.04;100.00
22743;BME280;11538;48.884;8.696;2023-05-21T00:56:56;98374.56;;;15.11;100.00
22743;BME280;11538;48.884;8.696;2023-05-21T00:59:24;98375.59;;;15.19;100.00
22743;BME280;11538;48.884;8.696;2023-05-21T01:01:52;98370.38;;;15.26;100.00
22743;BME280;11538;48.884;8.696;2023-05-21T01:04:22;98366.59;;;15.18;100.00
22743;BME280;11538;48.884;8.696;2023-05-21T01:06:49;98367.28;;;15.15;100.00
22743;BME280;11538;48.884;8.696;2023-05-21T01:09:19;98368.78;;;15.13;100.00
22743;BME280;11538;48.884;8.696;2023-05-21T01:11:49;98360.22;;;15.14;100.00
22743;BME280;11538;48.884;8.696;2023-05-21T01:14:18;98363.78;;;15.15;100.00
22743;BME280;11538;48.884;8.696;2023-05-21T01:16:48;98361.72;;;15.12;100.00
22743;BME280;11538;48.884;8.696;2023-05-21T01:19:21;98355.34;;;15.08;100.00
22743;BME280;11538;48.884;8.696;2023-05-21T01:22:06;98358.06;;;15.08;100.00
22743;BME280;11538;48.884;8.696;2023-05-21T01:24:34;98358.63;;;15.01;100.00
22743;BME280;11538;48.884;8.696;2023-05-21T01:27:02;98353.50;;;14.99;100.00
22743;BME280;11538;48.884;8.696;2023-05-21T01:29:32;98353.38;;;14.96;100.00
22743;BME280;11538;48.884;8.696;2023-05-21T01:35:10;98349.50;;;14.84;100.00
22743;BME280;11538;48.884;8.696;2023-05-21T01:37:45;98346.53;;;14.77;100.00
22743;BME280;11538;48.884;8.696;2023-05-21T01:40:24;98352.06;;;14.68;100.00
22743;BME280;11538;48.884;8.696;2023-05-21T01:42:55;98346.84;;;14.63;100.00
22743;BME280;11538;48.884;8.696;2023-05-21T01:45:24;98337.06;;;14.62;100.00
22743;BME280;11538;48.884;8.696;2023-05-21T01:47:54;98339.22;;;14.69;100.00
22743;BME280;11538;48.884;8.696;2023-05-21T01:50:23;98340.97;;;14.73;100.00
22743;BME280;11538;48.884;8.696;2023-05-21T01:52:53;98338.44;;;14.68;100.00
22743;BME280;11538;48.884;8.696;2023-05-21T01:55:20;98334.69;;;14.73;100.00
22743;BME280;11538;48.884;8.696;2023-05-21T01:57:52;98344.72;;;14.81;100.00
22743;BME280;11538;48.884;8.696;2023-05-21T02:00:21;98337.22;;;14.78;100.00
22743;BME280;11538;48.884;8.696;2023-05-21T02:02:49;98329.91;;;14.70;100.00
22743;BME280;11538;48.884;8.696;2023-05-21T02:05:17;98341.03;;;14.65;100.00
22743;BME280;11538;48.884;8.696;2023-05-21T02:07:44;98345.25;;;14.62;100.00
22743;BME280;11538;48.884;8.696;2023-05-21T02:10:12;98344.09;;;14.63;100.00
22743;BME280;11538;48.884;8.696;2023-05-21T02:12:39;98345.91;;;14.59;100.00
22743;BME280;11538;48.884;8.696;2023-05-21T02:15:09;98335.19;;;14.54;100.00
22743;BME280;11538;48.884;8.696;2023-05-21T02:17:36;98334.63;;;14.48;100.00
22743;BME280;11538;48.884;8.696;2023-05-21T02:20:07;98333.56;;;14.40;100.00
22743;BME280;11538;48.884;8.696;2023-05-21T02:22:43;98336.75;;;14.42;100.00
22743;BME280;11538;48.884;8.696;2023-05-21T02:25:13;98333.09;;;14.38;100.00
22743;BME280;11538;48.884;8.696;2023-05-21T02:27:41;98333.50;;;14.28;100.00
22743;BME280;11538;48.884;8.696;2023-05-21T02:30:10;98336.25;;;14.28;100.00
22743;BME280;11538;48.884;8.696;2023-05-21T02:32:39;98332.13;;;14.22;100.00
22743;BME280;11538;48.884;8.696;2023-05-21T02:35:11;98330.53;;;14.21;100.00
22743;BME280;11538;48.884;8.696;2023-05-21T02:37:39;98328.94;;;14.19;100.00
22743;BME280;11538;48.884;8.696;2023-05-21T02:40:07;98323.16;;;14.21;100.00
22743;BME280;11538;48.884;8.696;2023-05-21T02:42:39;98327.69;;;14.17;100.00
22743;BME280;11538;48.884;8.696;2023-05-21T02:45:08;98322.44;;;14.12;100.00
22743;BME280;11538;48.884;8.696;2023-05-21T02:47:36;98323.38;;;14.16;100.00
22743;BME280;11538;48.884;8.696;2023-05-21T02:50:08;98326.13;;;14.28;100.00
22743;BME280;11538;48.884;8.696;2023-05-21T02:52:35;98323.19;;;14.33;100.00
22743;BME280;11538;48.884;8.696;2023-05-21T02:55:02;98325.72;;;14.39;100.00
22743;BME280;11538;48.884;8.696;2023-05-21T02:57:30;98319.81;;;14.37;100.00
22743;BME280;11538;48.884;8.696;2023-05-21T02:59:57;98320.13;;;14.35;100.00
22743;BME280;11538;48.884;8.696;2023-05-21T03:02:24;98317.81;;;14.25;100.00
22743;BME280;11538;48.884;8.696;2023-05-21T03:04:52;98316.63;;;14.13;100.00
22743;BME280;11538;48.884;8.696;2023-05-21T03:07:19;98310.25;;;14.09;100.00
22743;BME280;11538;48.884;8.696;2023-05-21T03:09:47;98319.81;;;14.15;100.00
22743;BME280;11538;48.884;8.696;2023-05-21T03:12:14;98315.97;;;14.16;100.00
22743;BME280;11538;48.884;8.696;2023-05-21T03:14:41;98318.50;;;14.22;100.00
22743;BME280;11538;48.884;8.696;2023-05-21T03:17:09;98316.69;;;14.26;100.00
22743;BME280;11538;48.884;8.696;2023-05-21T03:19:40;98313.16;;;14.25;100.00
22743;BME280;11538;48.884;8.696;2023-05-21T03:22:08;98311.91;;;14.23;100.00
22743;BME280;11538;48.884;8.696;2023-05-21T03:24:36;98318.38;;;14.18;100.00
22743;BME280;11538;48.884;8.696;2023-05-21T03:27:04;98325.69;;;14.05;100.00
22743;BME280;11538;48.884;8.696;2023-05-21T03:29:33;98311.03;;;13.97;100.00
22743;BME280;11538;48.884;8.696;2023-05-21T03:32:00;98311.03;;;13.97;100.00
22743;BME280;11538;48.884;8.696;2023-05-21T03:34:28;98309.28;;;13.93;100.00
22743;BME280;11538;48.884;8.696;2023-05-21T03:36:55;98319.53;;;13.96;100.00
22743;BME280;11538;48.884;8.696;2023-05-21T03:39:21;98311.94;;;14.01;100.00
22743;BME280;11538;48.884;8.696;2023-05-21T03:41:48;98310.56;;;13.95;100.00
22743;BME280;11538;48.884;8.696;2023-05-21T03:44:15;98313.13;;;13.92;100.00
22743;BME280;11538;48.884;8.696;2023-05-21T03:46:42;98309.75;;;13.95;100.00
22743;BME280;11538;48.884;8.696;2023-05-21T03:49:12;98311.13;;;14.01;100.00
22743;BME280;11538;48.884;8.696;2023-05-21T03:51:39;98320.59;;;14.03;100.00
22743;BME280;11538;48.884;8.696;2023-05-21T03:54:06;98313.06;;;14.00;100.00
22743;BME280;11538;48.884;8.696;2023-05-21T03:56:33;98307.41;;;14.06;100.00
22743;BME280;11538;48.884;8.696;2023-05-21T03:59:00;98314.13;;;14.08;100.00
22743;BME280;11538;48.884;8.696;2023-05-21T04:01:27;98314.53;;;13.98;100.00
22743;BME280;11538;48.884;8.696;2023-05-21T04:03:54;98307.03;;;13.95;100.00
22743;BME280;11538;48.884;8.696;2023-05-21T04:06:21;98309.44;;;13.96;100.00
22743;BME280;11538;48.884;8.696;2023-05-21T04:08:49;98315.19;;;13.95;100.00
22743;BME280;11538;48.884;8.696;2023-05-21T04:11:16;98315.19;;;13.95;100.00
22743;BME280;11538;48.884;8.696;2023-05-21T04:13:43;98317.16;;;13.94;100.00
22743;BME280;11538;48.884;8.696;2023-05-21T04:16:09;98318.84;;;13.99;100.00
22743;BME280;11538;48.884;8.696;2023-05-21T04:18:40;98327.25;;;13.94;100.00
22743;BME280;11538;48.884;8.696;2023-05-21T04:21:11;98325.50;;;13.89;100.00
22743;BME280;11538;48.884;8.696;2023-05-21T04:23:38;98329.50;;;13.92;100.00
22743;BME280;11538;48.884;8.696;2023-05-21T04:26:05;98331.28;;;13.87;100.00
22743;BME280;11538;48.884;8.696;2023-05-21T04:28:33;98328.09;;;13.85;100.00
22743;BME280;11538;48.884;8.696;2023-05-21T04:31:01;98342.41;;;13.82;100.00
22743;BME280;11538;48.884;8.696;2023-05-21T04:33:28;98340.13;;;13.84;100.00
22743;BME280;11538;48.884;8.696;2023-05-21T04:35:56;98349.72;;;13.91;100.00
22743;BME280;11538;48.884;8.696;2023-05-21T04:38:23;98343.44;;;13.90;100.00
22743;BME280;11538;48.884;8.696;2023-05-21T04:40:50;98349.91;;;13.85;100.00
22743;BME280;11538;48.884;8.696;2023-05-21T04:43:30;98350.19;;;13.93;100.00
22743;BME280;11538;48.884;8.696;2023-05-21T04:45:57;98351.09;;;13.97;100.00
22743;BME280;11538;48.884;8.696;2023-05-21T04:48:24;98351.06;;;14.06;100.00
22743;BME280;11538;48.884;8.696;2023-05-21T04:50:54;98351.72;;;14.02;100.00
22743;BME280;11538;48.884;8.696;2023-05-21T04:53:23;98354.56;;;14.06;100.00
22743;BME280;11538;48.884;8.696;2023-05-21T04:55:52;98352.66;;;14.07;100.00
22743;BME280;11538;48.884;8.696;2023-05-21T04:58:18;98353.91;;;14.09;100.00
22743;BME280;11538;48.884;8.696;2023-05-21T05:00:46;98352.75;;;14.10;100.00
22743;BME280;11538;48.884;8.696;2023-05-21T05:03:14;98351.97;;;14.10;100.00
22743;BME280;11538;48.884;8.696;2023-05-21T05:05:41;98354.34;;;14.11;100.00
22743;BME280;11538;48.884;8.696;2023-05-21T05:08:08;98346.19;;;14.11;100.00
22743;BME280;11538;48.884;8.696;2023-05-21T05:10:34;98353.38;;;14.16;100.00
22743;BME280;11538;48.884;8.696;2023-05-21T05:13:02;98354.28;;;14.20;100.00
22743;BME280;11538;48.884;8.696;2023-05-21T05:15:29;98358.88;;;14.28;100.00
22743;BME280;11538;48.884;8.696;2023-05-21T05:17:56;98361.03;;;14.35;100.00
22743;BME280;11538;48.884;8.696;2023-05-21T05:20:26;98353.00;;;14.39;100.00
22743;BME280;11538;48.884;8.696;2023-05-21T05:22:52;98356.44;;;14.48;100.00
22743;BME280;11538;48.884;8.696;2023-05-21T05:25:19;98360.16;;;14.43;100.00
22743;BME280;11538;48.884;8.696;2023-05-21T05:27:46;98351.91;;;14.52;100.00
22743;BME280;11538;48.884;8.696;2023-05-21T05:30:13;98350.69;;;14.62;100.00
22743;BME280;11538;48.884;8.696;2023-05-21T05:32:40;98351.47;;;14.62;100.00
22743;BME280;11538;48.884;8.696;2023-05-21T05:35:08;98349.56;;;14.63;100.00
22743;BME280;11538;48.884;8.696;2023-05-21T05:37:35;98340.97;;;14.73;100.00
22743;BME280;11538;48.884;8.696;2023-05-21T05:40:02;98338.94;;;14.83;100.00
22743;BME280;11538;48.884;8.696;2023-05-21T05:42:30;98343.94;;;14.93;100.00
22743;BME280;11538;48.884;8.696;2023-05-21T05:44:57;98348.16;;;15.03;100.00
22743;BME280;11538;48.884;8.696;2023-05-21T05:47:24;98346.78;;;15.09;100.00
22743;BME280;11538;48.884;8.696;2023-05-21T05:49:52;98347.03;;;15.16;100.00
22743;BME280;11538;48.884;8.696;2023-05-21T05:52:18;98347.84;;;15.17;100.00
22743;BME280;11538;48.884;8.696;2023-05-21T05:54:45;98338.72;;;15.25;100.00
22743;BME280;11538;48.884;8.696;2023-05-21T05:57:15;98344.88;;;15.34;100.00
22743;BME280;11538;48.884;8.696;2023-05-21T05:59:42;98348.19;;;15.40;100.00
22743;BME280;11538;48.884;8.696;2023-05-21T06:02:09;98342.72;;;15.53;100.00
22743;BME280;11538;48.884;8.696;2023-05-21T06:04:36;98345.75;;;15.63;100.00
22743;BME280;11538;48.884;8.696;2023-05-21T06:07:03;98343.69;;;15.73;100.00
22743;BME280;11538;48.884;8.696;2023-05-21T06:09:30;98345.84;;;15.79;100.00
22743;BME280;11538;48.884;8.696;2023-05-21T06:11:57;98353.25;;;15.91;100.00
22743;BME280;11538;48.884;8.696;2023-05-21T06:14:24;98353.47;;;15.99;100.00
22743;BME280;11538;48.884;8.696;2023-05-21T06:16:51;98356.88;;;16.08;100.00
22743;BME280;11538;48.884;8.696;2023-05-21T06:19:18;98357.75;;;16.12;100.00
22743;BME280;11538;48.884;8.696;2023-05-21T06:21:45;98353.97;;;16.17;100.00
22743;BME280;11538;48.884;8.696;2023-05-21T06:24:13;98354.63;;;16.26;100.00
22743;BME280;11538;48.884;8.696;2023-05-21T06:26:39;98352.19;;;16.37;100.00
22743;BME280;11538;48.884;8.696;2023-05-21T06:29:07;98357.16;;;16.47;100.00
22743;BME280;11538;48.884;8.696;2023-05-21T06:31:34;98361.34;;;16.57;100.00
22743;BME280;11538;48.884;8.696;2023-05-21T06:34:01;98353.75;;;16.66;100.00
22743;BME280;11538;48.884;8.696;2023-05-21T06:36:28;98354.53;;;16.67;100.00
22743;BME280;11538;48.884;8.696;2023-05-21T06:38:55;98359.75;;;16.72;100.00
22743;BME280;11538;48.884;8.696;2023-05-21T06:41:22;98350.25;;;16.82;100.00
22743;BME280;11538;48.884;8.696;2023-05-21T06:43:49;98348.19;;;16.95;100.00
22743;BME280;11538;48.884;8.696;2023-05-21T06:46:17;98345.41;;;17.07;100.00
22743;BME280;11538;48.884;8.696;2023-05-21T06:48:44;98346.09;;;17.20;100.00
22743;BME280;11538;48.884;8.696;2023-05-21T06:51:12;98344.50;;;17.35;100.00
22743;BME280;11538;48.884;8.696;2023-05-21T06:53:39;98346.97;;;17.41;100.00
22743;BME280;11538;48.884;8.696;2023-05-21T06:56:06;98346.44;;;17.51;100.00
22743;BME280;11538;48.884;8.696;2023-05-21T06:58:33;98343.63;;;17.67;100.00
22743;BME280;11538;48.884;8.696;2023-05-21T07:01:00;98339.56;;;17.77;100.00
22743;BME280;11538;48.884;8.696;2023-05-21T07:03:27;98346.69;;;17.81;100.00
22743;BME280;11538;48.884;8.696;2023-05-21T07:05:56;98349.66;;;17.92;100.00
22743;BME280;11538;48.884;8.696;2023-05-21T07:08:23;98350.38;;;18.05;100.00
22743;BME280;11538;48.884;8.696;2023-05-21T07:10:50;98349.06;;;18.19;100.00
22743;BME280;11538;48.884;8.696;2023-05-21T07:13:17;98352.00;;;18.30;100.00
22743;BME280;11538;48.884;8.696;2023-05-21T07:15:44;98356.06;;;18.36;100.00
22743;BME280;11538;48.884;8.696;2023-05-21T07:18:11;98346.00;;;18.44;100.00
22743;BME280;11538;48.884;8.696;2023-05-21T07:20:39;98341.94;;;18.57;100.00
22743;BME280;11538;48.884;8.696;2023-05-21T07:23:06;98344.09;;;18.67;100.00
22743;BME280;11538;48.884;8.696;2023-05-21T07:25:33;98342.31;;;18.79;100.00
22743;BME280;11538;48.884;8.696;2023-05-21T07:28:00;98344.16;;;18.94;99.89
22743;BME280;11538;48.884;8.696;2023-05-21T07:30:27;98348.72;;;19.06;97.75
22743;BME280;11538;48.884;8.696;2023-05-21T07:32:54;98343.25;;;19.10;96.22
22743;BME280;11538;48.884;8.696;2023-05-21T07:35:21;98342.16;;;19.14;95.89
22743;BME280;11538;48.884;8.696;2023-05-21T07:37:48;98343.75;;;19.16;95.92
22743;BME280;11538;48.884;8.696;2023-05-21T07:40:15;98338.03;;;19.24;96.65
22743;BME280;11538;48.884;8.696;2023-05-21T07:42:44;98340.50;;;19.33;96.56
22743;BME280;11538;48.884;8.696;2023-05-21T07:45:11;98338.66;;;19.41;94.92
22743;BME280;11538;48.884;8.696;2023-05-21T07:47:38;98331.66;;;19.47;95.13
22743;BME280;11538;48.884;8.696;2023-05-21T07:50:05;98333.88;;;19.65;94.41
22743;BME280;11538;48.884;8.696;2023-05-21T07:52:32;98334.50;;;19.81;93.25
22743;BME280;11538;48.884;8.696;2023-05-21T07:55:00;98330.78;;;19.97;92.83
22743;BME280;11538;48.884;8.696;2023-05-21T07:57:27;98327.47;;;20.14;89.28
22743;BME280;11538;48.884;8.696;2023-05-21T07:59:54;98334.75;;;20.34;88.80
22743;BME280;11538;48.884;8.696;2023-05-21T08:02:22;98336.88;;;20.48;89.09
22743;BME280;11538;48.884;8.696;2023-05-21T08:04:49;98334.56;;;20.53;86.99
22743;BME280;11538;48.884;8.696;2023-05-21T08:07:17;98336.66;;;20.64;87.71
22743;BME280;11538;48.884;8.696;2023-05-21T08:09:45;98333.28;;;20.81;85.79
22743;BME280;11538;48.884;8.696;2023-05-21T08:12:12;98330.66;;;20.96;86.28
22743;BME280;11538;48.884;8.696;2023-05-21T08:14:41;98328.47;;;21.16;86.64
22743;BME280;11538;48.884;8.696;2023-05-21T08:17:08;98336.47;;;21.32;85.74
22743;BME280;11538;48.884;8.696;2023-05-21T08:19:36;98325.50;;;21.39;82.36
22743;BME280;11538;48.884;8.696;2023-05-21T08:22:04;98325.50;;;21.39;83.41
22743;BME280;11538;48.884;8.696;2023-05-21T08:24:32;98328.63;;;21.34;84.85
22743;BME280;11538;48.884;8.696;2023-05-21T08:27:01;98326.22;;;21.29;83.39
22743;BME280;11538;48.884;8.696;2023-05-21T08:29:27;98325.41;;;21.25;83.57
22743;BME280;11538;48.884;8.696;2023-05-21T08:31:54;98326.09;;;21.14;85.13
22743;BME280;11538;48.884;8.696;2023-05-21T08:34:22;98328.28;;;20.94;82.78
22743;BME280;11538;48.884;8.696;2023-05-21T08:36:49;98328.25;;;20.87;86.45
22743;BME280;11538;48.884;8.696;2023-05-21T08:39:15;98332.59;;;20.88;86.97
22743;BME280;11538;48.884;8.696;2023-05-21T08:41:43;98337.69;;;20.86;85.75
22743;BME280;11538;48.884;8.696;2023-05-21T08:44:19;98337.69;;;20.86;85.86
22743;BME280;11538;48.884;8.696;2023-05-21T08:46:49;98333.34;;;20.85;87.46
22743;BME280;11538;48.884;8.696;2023-05-21T08:49:25;98336.47;;;20.83;86.82
22743;BME280;11538;48.884;8.696;2023-05-21T08:51:57;98340.81;;;20.84;85.72
22743;BME280;11538;48.884;8.696;2023-05-21T08:54:24;98338.88;;;20.88;85.94
22743;BME280;11538;48.884;8.696;2023-05-21T08:56:56;98340.50;;;20.97;84.51
22743;BME280;11538;48.884;8.696;2023-05-21T08:59:24;98350.06;;;21.07;82.84
22743;BME280;11538;48.884;8.696;2023-05-21T09:01:53;98337.47;;;21.09;82.86
22743;BME280;11538;48.884;8.696;2023-05-21T09:04:23;98343.81;;;21.13;83.61
22743;BME280;11538;48.884;8.696;2023-05-21T09:06:53;98338.72;;;21.19;83.61
22743;BME280;11538;48.884;8.696;2023-05-21T09:09:31;98342.72;;;21.25;82.56
22743;BME280;11538;48.884;8.696;2023-05-21T09:12:02;98347.47;;;21.28;80.74
22743;BME280;11538;48.884;8.696;2023-05-21T09:14:33;98344.75;;;21.32;80.94
22743;BME280;11538;48.884;8.696;2023-05-21T09:17:01;98342.00;;;21.36;80.87
22743;BME280;11538;48.884;8.696;2023-05-21T09:19:28;98346.78;;;21.42;81.28
22743;BME280;11538;48.884;8.696;2023-05-21T09:22:04;98344.03;;;21.46;80.66
22743;BME280;11538;48.884;8.696;2023-05-21T09:24:31;98350.78;;;21.48;79.87
22743;BME280;11538;48.884;8.696;2023-05-21T09:27:02;98350.41;;;21.54;79.17
22743;BME280;11538;48.884;8.696;2023-05-21T09:29:33;98359.50;;;21.61;78.64
22743;BME280;11538;48.884;8.696;2023-05-21T09:32:05;98358.00;;;21.64;79.20
22743;BME280;11538;48.884;8.696;2023-05-21T09:34:35;98353.66;;;21.63;77.86
22743;BME280;11538;48.884;8.696;2023-05-21T09:37:02;98339.84;;;21.67;79.56
22743;BME280;11538;48.884;8.696;2023-05-21T09:39:34;98350.19;;;21.81;79.83
22743;BME280;11538;48.884;8.696;2023-05-21T09:42:01;98343.94;;;21.91;79.91
22743;BME280;11538;48.884;8.696;2023-05-21T09:44:28;98351.09;;;21.99;77.70
22743;BME280;11538;48.884;8.696;2023-05-21T09:46:56;98349.97;;;22.11;79.03
22743;BME280;11538;48.884;8.696;2023-05-21T09:49:26;98351.91;;;22.11;76.02
22743;BME280;11538;48.884;8.696;2023-05-21T09:51:57;98351.50;;;22.05;76.07
22743;BME280;11538;48.884;8.696;2023-05-21T09:54:30;98353.94;;;22.21;76.87
22743;BME280;11538;48.884;8.696;2023-05-21T09:57:00;98359.50;;;22.35;75.59
22743;BME280;11538;48.884;8.696;2023-05-21T09:59:38;98346.97;;;22.53;75.46
22743;BME280;11538;48.884;8.696;2023-05-21T10:02:18;98350.94;;;22.81;74.48
22743;BME280;11538;48.884;8.696;2023-05-21T10:04:49;98353.75;;;23.06;72.50
22743;BME280;11538;48.884;8.696;2023-05-21T10:07:19;98361.66;;;23.33;70.96
22743;BME280;11538;48.884;8.696;2023-05-21T10:09:56;98355.31;;;23.50;71.49
22743;BME280;11538;48.884;8.696;2023-05-21T10:12:29;98355.66;;;23.74;68.46
22743;BME280;11538;48.884;8.696;2023-05-21T10:15:00;98353.63;;;23.97;64.94
22743;BME280;11538;48.884;8.696;2023-05-21T10:17:29;98349.66;;;24.12;62.90
22743;BME280;11538;48.884;8.696;2023-05-21T10:19:58;98363.00;;;24.35;65.92
22743;BME280;11538;48.884;8.696;2023-05-21T10:22:27;98358.63;;;24.38;64.69
22743;BME280;11538;48.884;8.696;2023-05-21T10:24:55;98358.59;;;24.45;65.22
22743;BME280;11538;48.884;8.696;2023-05-21T10:27:23;98347.53;;;24.38;64.77
22743;BME280;11538;48.884;8.696;2023-05-21T10:29:53;98352.34;;;24.27;65.33
22743;BME280;11538;48.884;8.696;2023-05-21T10:32:23;98353.56;;;24.22;66.48
22743;BME280;11538;48.884;8.696;2023-05-21T10:34:54;98355.13;;;24.27;65.97
22743;BME280;11538;48.884;8.696;2023-05-21T10:37:25;98355.50;;;24.32;66.07
22743;BME280;11538;48.884;8.696;2023-05-21T10:39:54;98352.28;;;24.45;64.75
22743;BME280;11538;48.884;8.696;2023-05-21T10:43:17;98348.91;;;24.79;64.67
22743;BME280;11538;48.884;8.696;2023-05-21T10:54:55;98343.22;;;24.33;62.97
22743;BME280;11538;48.884;8.696;2023-05-21T11:00:37;98350.31;;;24.38;62.95
22743;BME280;11538;48.884;8.696;2023-05-21T11:03:05;98342.38;;;24.40;65.42
22743;BME280;11538;48.884;8.696;2023-05-21T11:05:53;98350.31;;;24.38;67.16
22743;BME280;11538;48.884;8.696;2023-05-21T11:08:23;98348.00;;;24.26;64.65
22743;BME280;11538;48.884;8.696;2023-05-21T11:10:53;98350.34;;;24.31;66.23
22743;BME280;11538;48.884;8.696;2023-05-21T11:13:20;98347.91;;;24.44;65.09
22743;BME280;11538;48.884;8.696;2023-05-21T11:21:10;98344.19;;;24.76;60.90
22743;BME280;11538;48.884;8.696;2023-05-21T11:23:54;98341.94;;;25.09;61.27
22743;BME280;11538;48.884;8.696;2023-05-21T11:29:13;98345.41;;;25.24;58.97
22743;BME280;11538;48.884;8.696;2023-05-21T11:31:58;98348.03;;;25.38;58.02
22743;BME280;11538;48.884;8.696;2023-05-21T11:34:46;98343.22;;;25.50;58.87
22743;BME280;11538;48.884;8.696;2023-05-21T11:39:50;98347.94;;;25.53;56.45
22743;BME280;11538;48.884;8.696;2023-05-21T11:42:33;98338.25;;;25.68;60.34
22743;BME280;11538;48.884;8.696;2023-05-21T11:45:02;98336.56;;;25.78;58.48
22743;BME280;11538;48.884;8.696;2023-05-21T11:47:31;98335.31;;;25.83;54.78
22743;BME280;11538;48.884;8.696;2023-05-21T11:50:01;98335.38;;;25.79;54.77
22743;BME280;11538;48.884;8.696;2023-05-21T11:52:31;98335.53;;;25.65;57.71
22743;BME280;11538;48.884;8.696;2023-05-21T11:54:58;98336.72;;;25.64;57.80
22743;BME280;11538;48.884;8.696;2023-05-21T11:57:29;98343.03;;;25.68;59.24
22743;BME280;11538;48.884;8.696;2023-05-21T12:00:01;98339.50;;;25.64;55.96
22743;BME280;11538;48.884;8.696;2023-05-21T12:02:32;98336.50;;;25.47;54.87
22743;BME280;11538;48.884;8.696;2023-05-21T12:04:59;98338.94;;;25.38;57.30
22743;BME280;11538;48.884;8.696;2023-05-21T12:07:27;98336.19;;;25.34;58.80
22743;BME280;11538;48.884;8.696;2023-05-21T12:09:58;98345.34;;;25.31;59.12
22743;BME280;11538;48.884;8.696;2023-05-21T12:12:26;98337.13;;;25.20;59.10
22743;BME280;11538;48.884;8.696;2023-05-21T12:15:08;98344.72;;;25.09;60.62
22743;BME280;11538;48.884;8.696;2023-05-21T12:17:35;98343.63;;;24.99;59.95
22743;BME280;11538;48.884;8.696;2023-05-21T12:20:03;98335.75;;;24.90;60.38
22743;BME280;11538;48.884;8.696;2023-05-21T12:22:33;98336.56;;;24.87;59.18
22743;BME280;11538;48.884;8.696;2023-05-21T12:25:03;98335.47;;;24.74;58.68
22743;BME280;11538;48.884;8.696;2023-05-21T12:27:29;98333.91;;;24.69;60.49
22743;BME280;11538;48.884;8.696;2023-05-21T12:29:59;98332.34;;;24.64;60.21
22743;BME280;11538;48.884;8.696;2023-05-21T12:32:29;98330.34;;;24.68;61.54
22743;BME280;11538;48.884;8.696;2023-05-21T12:34:56;98331.50;;;24.75;61.73
22743;BME280;11538;48.884;8.696;2023-05-21T12:37:26;98334.72;;;24.73;59.84
22743;BME280;11538;48.884;8.696;2023-05-21T12:39:59;98331.50;;;24.75;60.45
22743;BME280;11538;48.884;8.696;2023-05-21T12:42:33;98333.91;;;24.76;61.50
22743;BME280;11538;48.884;8.696;2023-05-21T12:45:08;98332.69;;;24.77;62.20
22743;BME280;11538;48.884;8.696;2023-05-21T12:47:35;98333.53;;;24.67;59.69
22743;BME280;11538;48.884;8.696;2023-05-21T12:50:07;98332.34;;;24.64;61.79
22743;BME280;11538;48.884;8.696;2023-05-21T12:52:40;98331.19;;;24.58;60.21
22743;BME280;11538;48.884;8.696;2023-05-21T12:55:13;98343.09;;;24.55;58.89
22743;BME280;11538;48.884;8.696;2023-05-21T12:57:41;98342.72;;;24.53;61.12
22743;BME280;11538;48.884;8.696;2023-05-21T13:00:09;98339.13;;;24.56;60.00
22743;BME280;11538;48.884;8.696;2023-05-21T13:02:39;98329.66;;;24.50;59.96
22743;BME280;11538;48.884;8.696;2023-05-21T13:05:10;98336.78;;;24.47;59.64
22743;BME280;11538;48.884;8.696;2023-05-21T13:07:38;98327.72;;;24.43;58.65
22743;BME280;11538;48.884;8.696;2023-05-21T13:10:06;98325.31;;;24.45;60.18
22743;BME280;11538;48.884;8.696;2023-05-21T13:12:38;98332.81;;;24.56;60.24
22743;BME280;11538;48.884;8.696;2023-05-21T13:15:09;98321.72;;;24.56;61.09
22743;BME280;11538;48.884;8.696;2023-05-21T13:17:36;98328.03;;;24.56;59.32
22743;BME280;11538;48.884;8.696;2023-05-21T13:22:38;98323.78;;;24.41;59.06
22743;BME280;11538;48.884;8.696;2023-05-21T13:25:16;98318.25;;;24.37;60.24
22743;BME280;11538;48.884;8.696;2023-05-21T13:27:45;98323.78;;;24.41;60.50
22743;BME280;11538;48.884;8.696;2023-05-21T13:30:13;98319.41;;;24.43;61.21
22743;BME280;11538;48.884;8.696;2023-05-21T13:32:41;98318.66;;;24.32;60.56